Time,TemperatureF,DewpointF,PressureIn,WindDirection,WindDirectionDegrees,WindSpeedMPH,WindSpeedGustMPH,Humidity,HourlyPrecipIn,Conditions,Clouds,dailyrainin,SolarRadiationWatts/m^2,SoftwareType,DateUTC
2013-01-20 00:04:00,52.6,34.5,30.20,West,270,3.6,4.0,50,0.00,CLR,,0.00,0.0,WeatherDisplay:10.37,2013-01-20 08:04:00,
2013-01-20 00:09:00,52.5,34.4,30.20,West,269,2.9,4.0,50,0.00,CLR,,0.00,0.0,WeatherDisplay:10.37,2013-01-20 08:09:00,
2013-01-20 00:14:00,52.4,34.3,30.20,West,265,4.8,5.0,50,0.00,CLR,,0.00,0.0,WeatherDisplay:10.37,2013-01-20 08:14:00,
2013-01-20 00:19:00,52.3,33.7,30.20,WSW,253,5.5,6.0,49,0.00,CLR,,0.00,0.0,WeatherDisplay:10.37,2013-01-20 08:19:00,
2013-01-20 00:24:00,52.3,33.7,30.20,West,260,5.3,5.8,49,0.00,CLR,,0.00,0.0,WeatherDisplay:10.37,2013-01-20 08:24:00,
2013-01-20 00:29:00,52.3,33.7,30.20,West,266,4.7,5.8,49,0.00,CLR,,0.00,0.0,WeatherDisplay:10.37,2013-01-20 08:29:00,
2013-01-20 00:34:00,52.3,34.2,30.20,WSW,255,4.9,6.9,50,0.00,CLR,,0.00,0.0,WeatherDisplay:10.37,2013-01-20 08:34:00,
2013-01-20 00:39:00,52.3,34.2,30.20,West,276,5.1,6.9,50,0.00,CLR,,0.00,0.0,WeatherDisplay:10.37,2013-01-20 08:39:00,
2013-01-20 00:44:00,52.2,34.1,30.20,West,270,4.9,5.8,50,0.00,CLR,,0.00,0.0,WeatherDisplay:10.37,2013-01-20 08:44:00,
2013-01-20 00:49:00,52.3,33.7,30.20,WSW,248,4.1,5.8,49,0.00,CLR,,0.00,0.0,WeatherDisplay:10.37,2013-01-20 08:49:00,
2013-01-20 00:54:00,52.3,33.2,30.20,SW,223,7.4,8.1,48,0.00,CLR,,0.00,0.0,WeatherDisplay:10.37,2013-01-20 08:54:00,
2013-01-20 00:59:00,52.3,32.6,30.20,SW,234,6.2,8.1,47,0.00,CLR,,0.00,0.0,WeatherDisplay:10.37,2013-01-20 08:59:00,
2013-01-20 01:04:00,52.3,32.6,30.20,WSW,240,6.6,8.1,47,0.00,CLR,,0.00,0.0,WeatherDisplay:10.37,2013-01-20 09:04:00,
2013-01-20 01:09:00,52.2,32.0,30.20,WSW,243,7.9,9.2,46,0.00,CLR,,0.00,0.0,WeatherDisplay:10.37,2013-01-20 09:09:00,
2013-01-20 01:14:00,52.3,32.1,30.20,WSW,237,8.2,10.4,46,0.00,CLR,,0.00,0.0,WeatherDisplay:10.37,2013-01-20 09:14:00,
2013-01-20 01:19:00,52.3,32.1,30.19,SW,234,8.8,10.4,46,0.00,CLR,,0.00,0.0,WeatherDisplay:10.37,2013-01-20 09:19:00,
2013-01-20 01:24:00,52.2,32.0,30.19,SW,222,7.8,11.0,46,0.00,CLR,,0.00,0.0,WeatherDisplay:10.37,2013-01-20 09:24:00,
2013-01-20 01:29:00,52.2,32.0,30.19,SW,226,8.4,10.4,46,0.00,CLR,,0.00,0.0,WeatherDisplay:10.37,2013-01-20 09:29:00,
2013-01-20 01:34:00,52.2,32.0,30.20,SW,218,7.6,10.4,46,0.00,CLR,,0.00,0.0,WeatherDisplay:10.37,2013-01-20 09:34:00,
2013-01-20 01:39:00,52.2,31.5,30.20,SW,232,5.8,8.1,45,0.00,CLR,,0.00,0.0,WeatherDisplay:10.37,2013-01-20 09:39:00,
2013-01-20 01:44:00,52.2,31.5,30.20,WSW,243,7.9,9.2,45,0.00,CLR,,0.00,0.0,WeatherDisplay:10.37,2013-01-20 09:44:00,
2013-01-20 01:49:00,52.4,32.7,30.20,WSW,254,6.3,8.1,47,0.00,CLR,,0.00,0.0,WeatherDisplay:10.37,2013-01-20 09:49:00,
2013-01-20 01:54:00,52.6,32.4,30.20,WSW,246,3.0,4.6,46,0.00,CLR,,0.00,0.0,WeatherDisplay:10.37,2013-01-20 09:54:00,
2013-01-20 01:59:00,52.7,32.5,30.20,West,260,5.6,7.0,46,0.00,CLR,,0.00,0.0,WeatherDisplay:10.37,2013-01-20 09:59:00,
2013-01-20 02:04:00,52.6,32.4,30.20,West,262,5.0,5.8,46,0.00,CLR,,0.00,0.0,WeatherDisplay:10.37,2013-01-20 10:04:00,
2013-01-20 02:09:00,52.6,31.8,30.20,West,281,2.9,3.5,45,0.00,CLR,,0.00,0.0,WeatherDisplay:10.37,2013-01-20 10:09:00,
2013-01-20 02:14:00,52.4,31.7,30.20,West,280,3.1,3.5,45,0.00,CLR,,0.00,0.0,WeatherDisplay:10.37,2013-01-20 10:14:00,
2013-01-20 02:19:00,52.2,32.0,30.20,West,280,2.8,3.5,46,0.00,CLR,,0.00,0.0,WeatherDisplay:10.37,2013-01-20 10:19:00,
2013-01-20 02:24:00,52.0,31.8,30.20,West,279,1.8,3.5,46,0.00,CLR,,0.00,0.0,WeatherDisplay:10.37,2013-01-20 10:24:00,
2013-01-20 02:29:00,51.7,31.6,30.20,West,278,1.9,3.5,46,0.00,CLR,,0.00,0.0,WeatherDisplay:10.37,2013-01-20 10:29:00,
2013-01-20 02:34:00,51.4,31.3,30.20,West,278,2.4,3.5,46,0.00,CLR,,0.00,0.0,WeatherDisplay:10.37,2013-01-20 10:34:00,
2013-01-20 02:39:00,51.0,31.5,30.20,West,278,2.2,3.5,47,0.00,CLR,,0.00,0.0,WeatherDisplay:10.37,2013-01-20 10:39:00,
2013-01-20 02:44:00,50.7,30.7,30.20,WSW,255,4.8,5.8,46,0.00,CLR,,0.00,0.0,WeatherDisplay:10.37,2013-01-20 10:44:00,
2013-01-20 02:49:00,50.5,30.5,30.20,WSW,249,3.5,4.6,46,0.00,CLR,,0.00,0.0,WeatherDisplay:10.37,2013-01-20 10:49:00,
2013-01-20 02:54:00,50.3,30.3,30.20,WSW,250,3.5,4.6,46,0.00,CLR,,0.00,0.0,WeatherDisplay:10.37,2013-01-20 10:54:00,
2013-01-20 02:59:00,50.3,30.3,30.20,WSW,255,3.5,5.0,46,0.00,CLR,,0.00,0.0,WeatherDisplay:10.37,2013-01-20 10:59:00,
2013-01-20 03:04:00,50.3,30.3,30.20,West,272,6.5,7.0,46,0.00,CLR,,0.00,0.0,WeatherDisplay:10.37,2013-01-20 11:04:00,
2013-01-20 03:09:00,50.5,30.5,30.20,West,266,5.3,7.0,46,0.00,CLR,,0.00,0.0,WeatherDisplay:10.37,2013-01-20 11:09:00,
2013-01-20 03:14:00,50.7,31.2,30.20,WSW,255,6.9,8.1,47,0.00,CLR,,0.00,0.0,WeatherDisplay:10.37,2013-01-20 11:14:00,
2013-01-20 03:19:00,50.7,31.7,30.20,WSW,256,6.8,7.0,48,0.00,CLR,,0.00,0.0,WeatherDisplay:10.37,2013-01-20 11:19:00,
2013-01-20 03:24:00,50.6,31.6,30.20,SW,232,4.4,8.1,48,0.00,CLR,,0.00,0.0,WeatherDisplay:10.37,2013-01-20 11:24:00,
2013-01-20 03:29:00,50.6,31.1,30.20,WSW,249,4.9,6.9,47,0.00,CLR,,0.00,0.0,WeatherDisplay:10.37,2013-01-20 11:29:00,
2013-01-20 03:34:00,50.6,31.1,30.20,SW,236,5.1,6.9,47,0.00,CLR,,0.00,0.0,WeatherDisplay:10.37,2013-01-20 11:34:00,
2013-01-20 03:39:00,50.4,31.4,30.20,WSW,249,6.3,8.1,48,0.00,CLR,,0.00,0.0,WeatherDisplay:10.37,2013-01-20 11:39:00,
2013-01-20 03:44:00,50.4,31.4,30.19,WSW,256,6.1,8.1,48,0.00,CLR,,0.00,0.0,WeatherDisplay:10.37,2013-01-20 11:44:00,
2013-01-20 03:49:00,50.5,31.0,30.20,West,260,5.3,7.0,47,0.00,CLR,,0.00,0.0,WeatherDisplay:10.37,2013-01-20 11:49:00,
2013-01-20 03:54:00,50.5,31.0,30.19,WSW,257,6.6,8.1,47,0.00,CLR,,0.00,0.0,WeatherDisplay:10.37,2013-01-20 11:54:00,
2013-01-20 03:59:00,50.5,31.0,30.19,West,265,5.2,6.9,47,0.00,CLR,,0.00,0.0,WeatherDisplay:10.37,2013-01-20 11:59:00,
2013-01-20 04:04:00,50.5,31.5,30.19,WSW,258,3.5,5.8,48,0.00,CLR,,0.00,0.0,WeatherDisplay:10.37,2013-01-20 12:04:00,
2013-01-20 04:09:00,50.4,31.4,30.19,WSW,247,3.4,4.6,48,0.00,CLR,,0.00,0.0,WeatherDisplay:10.37,2013-01-20 12:09:00,
2013-01-20 04:14:00,50.2,31.8,30.19,WSW,240,3.4,3.5,49,0.00,CLR,,0.00,0.0,WeatherDisplay:10.37,2013-01-20 12:14:00,
2013-01-20 04:19:00,50.0,32.1,30.19,WSW,239,3.6,4.6,50,0.00,CLR,,0.00,0.0,WeatherDisplay:10.37,2013-01-20 12:19:00,
2013-01-20 04:24:00,49.7,31.3,30.19,SW,233,4.1,4.6,49,0.00,CLR,,0.00,0.0,WeatherDisplay:10.37,2013-01-20 12:24:00,
2013-01-20 04:29:00,49.6,31.2,30.19,WSW,241,3.3,5.0,49,0.00,CLR,,0.00,0.0,WeatherDisplay:10.37,2013-01-20 12:29:00,
2013-01-20 04:34:00,49.4,31.5,30.19,WSW,241,2.5,3.5,50,0.00,CLR,,0.00,0.0,WeatherDisplay:10.37,2013-01-20 12:34:00,
2013-01-20 04:39:00,49.3,31.9,30.19,WSW,241,2.7,3.5,51,0.00,CLR,,0.00,0.0,WeatherDisplay:10.37,2013-01-20 12:39:00,
2013-01-20 04:44:00,49.1,32.2,30.19,WSW,241,2.7,3.5,52,0.00,CLR,,0.00,0.0,WeatherDisplay:10.37,2013-01-20 12:44:00,
2013-01-20 04:49:00,49.1,32.7,30.19,WSW,241,2.3,3.5,53,0.00,CLR,,0.00,0.0,WeatherDisplay:10.37,2013-01-20 12:49:00,
2013-01-20 04:54:00,49.1,32.7,30.19,WSW,240,1.9,2.3,53,0.00,CLR,,0.00,0.0,WeatherDisplay:10.37,2013-01-20 12:54:00,
2013-01-20 04:59:00,48.9,33.0,30.19,WSW,241,1.1,2.3,54,0.00,CLR,,0.00,0.0,WeatherDisplay:10.37,2013-01-20 12:59:00,
2013-01-20 05:04:00,48.9,33.4,30.19,WSW,241,0.0,0.0,55,0.00,CLR,,0.00,0.0,WeatherDisplay:10.37,2013-01-20 13:04:00,
2013-01-20 05:09:00,49.0,34.0,30.19,SSW,201,2.4,3.5,56,0.00,CLR,,0.00,0.0,WeatherDisplay:10.37,2013-01-20 13:09:00,
2013-01-20 05:14:00,49.1,34.5,30.19,SSE,166,2.9,4.0,57,0.00,CLR,,0.00,0.0,WeatherDisplay:10.37,2013-01-20 13:14:00,
2013-01-20 05:19:00,49.3,34.7,30.19,SSE,161,3.5,3.5,57,0.00,CLR,,0.00,0.0,WeatherDisplay:10.37,2013-01-20 13:19:00,
2013-01-20 05:24:00,49.6,35.0,30.19,SSE,161,4.4,5.0,57,0.00,CLR,,0.00,0.0,WeatherDisplay:10.37,2013-01-20 13:24:00,
2013-01-20 05:29:00,49.7,35.1,30.19,SSE,156,5.0,5.8,57,0.00,CLR,,0.00,0.0,WeatherDisplay:10.37,2013-01-20 13:29:00,
2013-01-20 05:34:00,49.9,35.3,30.19,SSE,148,4.2,4.6,57,0.00,CLR,,0.00,0.0,WeatherDisplay:10.37,2013-01-20 13:34:00,
2013-01-20 05:39:00,50.3,35.2,30.19,SE,141,4.3,5.0,56,0.00,CLR,,0.00,0.0,WeatherDisplay:10.37,2013-01-20 13:39:00,
2013-01-20 05:44:00,50.8,35.7,30.18,SE,132,5.2,5.8,56,0.00,CLR,,0.00,0.0,WeatherDisplay:10.37,2013-01-20 13:44:00,
2013-01-20 05:49:00,51.4,35.8,30.18,SE,138,5.2,5.8,55,0.00,CLR,,0.00,0.0,WeatherDisplay:10.37,2013-01-20 13:49:00,
2013-01-20 05:54:00,51.8,35.2,30.18,SE,143,4.7,5.8,53,0.00,CLR,,0.00,0.0,WeatherDisplay:10.37,2013-01-20 13:54:00,
2013-01-20 05:59:00,51.9,34.8,30.18,SE,145,5.0,5.8,52,0.00,CLR,,0.00,0.0,WeatherDisplay:10.37,2013-01-20 13:59:00,
2013-01-20 06:04:00,51.8,34.2,30.19,SSE,147,4.7,5.8,51,0.00,CLR,,0.00,0.0,WeatherDisplay:10.37,2013-01-20 14:04:00,
2013-01-20 06:09:00,51.7,33.6,30.18,SSE,147,4.8,5.0,50,0.00,CLR,,0.00,0.0,WeatherDisplay:10.37,2013-01-20 14:09:00,
2013-01-20 06:14:00,51.8,32.7,30.18,SE,135,3.4,4.6,48,0.00,CLR,,0.00,0.0,WeatherDisplay:10.37,2013-01-20 14:14:00,
2013-01-20 06:19:00,52.0,31.3,30.18,SE,130,0.8,2.3,45,0.00,CLR,,0.00,0.0,WeatherDisplay:10.37,2013-01-20 14:19:00,
2013-01-20 06:24:00,51.9,32.3,30.19,SE,130,2.7,3.5,47,0.00,CLR,,0.00,0.0,WeatherDisplay:10.37,2013-01-20 14:24:00,
2013-01-20 06:29:00,51.5,33.5,30.19,SE,132,1.5,2.3,50,0.00,CLR,,0.00,0.0,WeatherDisplay:10.37,2013-01-20 14:29:00,
2013-01-20 06:34:00,50.9,33.4,30.19,SW,214,0.1,1.1,51,0.00,CLR,,0.00,0.0,WeatherDisplay:10.37,2013-01-20 14:34:00,
2013-01-20 06:39:00,50.3,33.3,30.19,SW,217,2.7,3.5,52,0.00,CLR,,0.00,0.0,WeatherDisplay:10.37,2013-01-20 14:39:00,
2013-01-20 06:44:00,49.8,31.9,30.19,NW,317,1.6,3.5,50,0.00,CLR,,0.00,0.0,WeatherDisplay:10.37,2013-01-20 14:44:00,
2013-01-20 06:49:00,49.5,31.1,30.19,WNW,299,4.7,6.9,49,0.00,CLR,,0.00,0.0,WeatherDisplay:10.37,2013-01-20 14:49:00,
2013-01-20 06:54:00,49.4,31.0,30.19,NW,311,4.0,5.0,49,0.00,CLR,,0.00,0.0,WeatherDisplay:10.37,2013-01-20 14:54:00,
2013-01-20 06:59:00,49.5,31.1,30.19,WNW,287,5.4,5.8,49,0.00,CLR,,0.00,0.0,WeatherDisplay:10.37,2013-01-20 14:59:00,
2013-01-20 07:04:00,49.5,31.1,30.19,WNW,303,5.5,5.8,49,0.00,CLR,,0.00,0.0,WeatherDisplay:10.37,2013-01-20 15:04:00,
2013-01-20 07:09:00,49.5,30.6,30.19,WNW,301,6.3,7.0,48,0.00,CLR,,0.00,0.0,WeatherDisplay:10.37,2013-01-20 15:09:00,
2013-01-20 07:14:00,49.4,30.5,30.19,WNW,289,5.7,8.1,48,0.00,CLR,,0.00,0.0,WeatherDisplay:10.37,2013-01-20 15:14:00,
2013-01-20 07:19:00,49.2,30.3,30.19,West,270,3.8,6.9,48,0.00,CLR,,0.00,5.0,WeatherDisplay:10.37,2013-01-20 15:19:00,
2013-01-20 07:24:00,49.1,30.2,30.19,WNW,282,5.2,6.9,48,0.00,CLR,,0.00,9.0,WeatherDisplay:10.37,2013-01-20 15:24:00,
2013-01-20 07:29:00,48.9,30.1,30.19,WSW,250,5.7,6.9,48,0.00,CLR,,0.00,11.0,WeatherDisplay:10.37,2013-01-20 15:29:00,
2013-01-20 07:34:00,48.9,30.1,30.19,West,266,8.9,10.4,48,0.00,CLR,,0.00,14.0,WeatherDisplay:10.37,2013-01-20 15:34:00,
2013-01-20 07:39:00,49.1,29.7,30.19,SW,230,6.9,9.2,47,0.00,CLR,,0.00,18.0,WeatherDisplay:10.37,2013-01-20 15:39:00,
2013-01-20 07:44:00,49.2,29.3,30.19,WSW,241,9.5,11.5,46,0.00,CLR,,0.00,21.0,WeatherDisplay:10.37,2013-01-20 15:44:00,
2013-01-20 07:49:00,49.3,29.4,30.19,SW,225,9.6,12.7,46,0.00,CLR,,0.00,25.0,WeatherDisplay:10.37,2013-01-20 15:49:00,
2013-01-20 07:54:00,49.4,29.5,30.19,SW,231,9.2,10.4,46,0.00,CLR,,0.00,44.0,WeatherDisplay:10.37,2013-01-20 15:54:00,
2013-01-20 07:59:00,49.7,29.2,30.19,SW,224,4.1,9.2,45,0.00,CLR,,0.00,69.0,WeatherDisplay:10.37,2013-01-20 15:59:00,
2013-01-20 08:04:00,50.1,29.6,30.19,SW,220,9.7,11.5,45,0.00,CLR,,0.00,86.0,WeatherDisplay:10.37,2013-01-20 16:04:00,
2013-01-20 08:09:00,50.5,29.4,30.19,SW,234,7.6,11.5,44,0.00,CLR,,0.00,100.0,WeatherDisplay:10.37,2013-01-20 16:09:00,
2013-01-20 08:14:00,50.9,29.7,30.19,SW,223,10.0,11.5,44,0.00,CLR,,0.00,118.0,WeatherDisplay:10.37,2013-01-20 16:14:00,
2013-01-20 08:19:00,51.3,29.5,30.19,SW,234,7.9,11.5,43,0.00,CLR,,0.00,134.0,WeatherDisplay:10.37,2013-01-20 16:19:00,
2013-01-20 08:24:00,51.6,29.8,30.20,West,259,7.1,8.1,43,0.00,CLR,,0.00,155.0,WeatherDisplay:10.37,2013-01-20 16:24:00,
2013-01-20 08:29:00,51.9,30.1,30.20,SW,235,4.4,6.9,43,0.00,CLR,,0.00,176.0,WeatherDisplay:10.37,2013-01-20 16:29:00,
2013-01-20 08:34:00,52.3,31.0,30.20,West,280,3.1,6.9,44,0.00,CLR,,0.00,193.0,WeatherDisplay:10.37,2013-01-20 16:34:00,
2013-01-20 08:39:00,52.7,30.8,30.20,West,268,2.5,5.8,43,0.00,CLR,,0.00,211.0,WeatherDisplay:10.37,2013-01-20 16:39:00,
2013-01-20 08:44:00,53.3,31.4,30.20,WSW,254,2.0,3.5,43,0.00,CLR,,0.00,225.0,WeatherDisplay:10.37,2013-01-20 16:44:00,
2013-01-20 08:49:00,53.9,31.9,30.21,NW,309,3.5,5.8,43,0.00,CLR,,0.00,241.0,WeatherDisplay:10.37,2013-01-20 16:49:00,
2013-01-20 08:54:00,54.3,32.8,30.21,West,274,3.2,5.8,44,0.00,CLR,,0.00,253.0,WeatherDisplay:10.37,2013-01-20 16:54:00,
2013-01-20 08:59:00,54.6,33.7,30.21,WNW,303,0.5,4.6,45,0.00,CLR,,0.00,271.0,WeatherDisplay:10.37,2013-01-20 16:59:00,
2013-01-20 09:04:00,55.0,34.0,30.21,NNW,331,3.1,6.9,45,0.00,CLR,,0.00,281.0,WeatherDisplay:10.37,2013-01-20 17:04:00,
2013-01-20 09:09:00,55.4,34.4,30.21,NW,316,2.3,4.6,45,0.00,CLR,,0.00,287.0,WeatherDisplay:10.37,2013-01-20 17:09:00,
2013-01-20 09:14:00,55.7,34.7,30.21,NNE,24,1.5,7.0,45,0.00,CLR,,0.00,311.0,WeatherDisplay:10.37,2013-01-20 17:14:00,
2013-01-20 09:19:00,55.9,34.3,30.22,WNW,302,0.8,3.5,44,0.00,CLR,,0.00,322.0,WeatherDisplay:10.37,2013-01-20 17:19:00,
2013-01-20 09:24:00,56.2,34.6,30.22,WNW,294,0.2,3.5,44,0.00,CLR,,0.00,330.0,WeatherDisplay:10.37,2013-01-20 17:24:00,
2013-01-20 09:29:00,56.5,34.8,30.22,WNW,293,0.0,1.1,44,0.00,CLR,,0.00,357.0,WeatherDisplay:10.37,2013-01-20 17:29:00,
2013-01-20 09:34:00,56.8,34.5,30.22,NNE,24,2.4,5.8,43,0.00,CLR,,0.00,369.0,WeatherDisplay:10.37,2013-01-20 17:34:00,
2013-01-20 09:39:00,56.9,34.6,30.22,NNW,328,2.7,5.8,43,0.00,CLR,,0.00,380.0,WeatherDisplay:10.37,2013-01-20 17:39:00,
2013-01-20 09:44:00,57.1,34.2,30.22,NNW,330,6.3,9.2,42,0.00,CLR,,0.00,392.0,WeatherDisplay:10.37,2013-01-20 17:44:00,
2013-01-20 09:49:00,57.3,34.4,30.22,West,263,4.5,9.2,42,0.00,CLR,,0.00,404.0,WeatherDisplay:10.37,2013-01-20 17:49:00,
2013-01-20 09:54:00,57.1,34.8,30.22,North,2,3.1,6.9,43,0.00,CLR,,0.00,417.0,WeatherDisplay:10.37,2013-01-20 17:54:00,
2013-01-20 09:59:00,57.1,34.8,30.22,NNW,340,4.7,6.9,43,0.00,CLR,,0.00,425.0,WeatherDisplay:10.37,2013-01-20 17:59:00,
2013-01-20 10:04:00,57.1,34.8,30.22,NE,45,4.9,8.1,43,0.00,CLR,,0.00,436.0,WeatherDisplay:10.37,2013-01-20 18:04:00,
2013-01-20 10:09:00,57.4,35.6,30.22,NNW,337,1.2,3.5,44,0.00,CLR,,0.00,445.0,WeatherDisplay:10.37,2013-01-20 18:09:00,
2013-01-20 10:14:00,57.7,34.7,30.22,NNE,16,0.4,3.5,42,0.00,CLR,,0.00,457.0,WeatherDisplay:10.37,2013-01-20 18:14:00,
2013-01-20 10:19:00,58.0,34.4,30.22,NNE,24,3.6,5.8,41,0.00,CLR,,0.00,466.0,WeatherDisplay:10.37,2013-01-20 18:19:00,
2013-01-20 10:24:00,58.2,34.6,30.22,NNE,13,2.4,4.0,41,0.00,CLR,,0.00,476.0,WeatherDisplay:10.37,2013-01-20 18:24:00,
2013-01-20 10:29:00,58.4,34.2,30.22,ENE,76,1.2,3.5,40,0.00,CLR,,0.00,485.0,WeatherDisplay:10.37,2013-01-20 18:29:00,
2013-01-20 10:34:00,58.2,34.0,30.22,ENE,77,0.7,1.1,40,0.00,CLR,,0.00,494.0,WeatherDisplay:10.37,2013-01-20 18:34:00,
2013-01-20 10:39:00,58.4,34.2,30.22,SW,228,0.7,2.3,40,0.00,CLR,,0.00,504.0,WeatherDisplay:10.37,2013-01-20 18:39:00,
2013-01-20 10:44:00,58.6,35.0,30.21,NW,308,1.5,3.5,41,0.00,CLR,,0.00,512.0,WeatherDisplay:10.37,2013-01-20 18:44:00,
2013-01-20 10:49:00,59.0,34.1,30.21,WSW,249,1.9,3.5,39,0.00,CLR,,0.00,520.0,WeatherDisplay:10.37,2013-01-20 18:49:00,
2013-01-20 10:54:00,59.3,33.7,30.21,WSW,249,0.4,2.3,38,0.00,CLR,,0.00,527.0,WeatherDisplay:10.37,2013-01-20 18:54:00,
2013-01-20 10:59:00,59.8,34.8,30.21,NW,305,2.2,4.6,39,0.00,CLR,,0.00,534.0,WeatherDisplay:10.37,2013-01-20 18:59:00,
2013-01-20 11:04:00,60.5,35.4,30.20,WNW,301,2.7,4.0,39,0.00,CLR,,0.00,543.0,WeatherDisplay:10.37,2013-01-20 19:04:00,
2013-01-20 11:09:00,60.7,34.9,30.20,NW,322,2.9,6.0,38,0.00,CLR,,0.00,550.0,WeatherDisplay:10.37,2013-01-20 19:09:00,
2013-01-20 11:14:00,61.0,34.5,30.20,NNW,339,2.2,3.5,37,0.00,CLR,,0.00,557.0,WeatherDisplay:10.37,2013-01-20 19:14:00,
2013-01-20 11:19:00,61.1,34.6,30.20,NW,315,2.8,5.8,37,0.00,CLR,,0.00,563.0,WeatherDisplay:10.37,2013-01-20 19:19:00,
2013-01-20 11:24:00,61.4,34.9,30.19,NW,305,5.0,6.0,37,0.00,CLR,,0.00,573.0,WeatherDisplay:10.37,2013-01-20 19:24:00,
2013-01-20 11:29:00,61.2,34.7,30.19,WNW,287,4.9,6.0,37,0.00,CLR,,0.00,577.0,WeatherDisplay:10.37,2013-01-20 19:29:00,
2013-01-20 11:34:00,61.4,34.9,30.19,WNW,287,5.9,6.9,37,0.00,CLR,,0.00,578.0,WeatherDisplay:10.37,2013-01-20 19:34:00,
2013-01-20 11:39:00,61.8,35.2,30.19,NW,311,4.3,5.8,37,0.00,CLR,,0.00,575.0,WeatherDisplay:10.37,2013-01-20 19:39:00,
2013-01-20 11:44:00,62.0,34.7,30.18,NW,307,3.3,5.0,36,0.00,CLR,,0.00,578.0,WeatherDisplay:10.37,2013-01-20 19:44:00,
2013-01-20 11:49:00,62.4,35.1,30.18,WNW,303,4.3,6.0,36,0.00,CLR,,0.00,573.0,WeatherDisplay:10.37,2013-01-20 19:49:00,
2013-01-20 11:54:00,62.8,34.7,30.18,NNW,334,2.3,3.5,35,0.00,CLR,,0.00,587.0,WeatherDisplay:10.37,2013-01-20 19:54:00,
2013-01-20 11:59:00,63.0,34.9,30.17,NW,317,3.8,5.8,35,0.00,CLR,,0.00,571.0,WeatherDisplay:10.37,2013-01-20 19:59:00,
2013-01-20 12:04:00,63.2,34.3,30.17,NW,324,2.4,3.5,34,0.00,CLR,,0.00,563.0,WeatherDisplay:10.37,2013-01-20 20:04:00,
2013-01-20 12:09:00,63.3,34.4,30.17,NNW,334,1.3,3.5,34,0.00,CLR,,0.00,587.0,WeatherDisplay:10.37,2013-01-20 20:09:00,
2013-01-20 12:14:00,63.4,36.0,30.17,NW,314,3.8,5.8,36,0.00,CLR,,0.00,580.0,WeatherDisplay:10.37,2013-01-20 20:14:00,
2013-01-20 12:19:00,63.6,35.4,30.16,NW,326,3.4,4.6,35,0.00,CLR,,0.00,577.0,WeatherDisplay:10.37,2013-01-20 20:19:00,
2013-01-20 12:24:00,63.6,36.1,30.16,NW,320,1.8,3.5,36,0.00,CLR,,0.00,563.0,WeatherDisplay:10.37,2013-01-20 20:24:00,
2013-01-20 12:29:00,63.8,35.6,30.16,NW,310,4.7,6.9,35,0.00,CLR,,0.00,584.0,WeatherDisplay:10.37,2013-01-20 20:29:00,
2013-01-20 12:34:00,63.9,35.7,30.16,NW,321,4.2,5.8,35,0.00,CLR,,0.00,584.0,WeatherDisplay:10.37,2013-01-20 20:34:00,
2013-01-20 12:39:00,64.1,35.9,30.15,North,357,2.8,4.6,35,0.00,CLR,,0.00,578.0,WeatherDisplay:10.37,2013-01-20 20:39:00,
2013-01-20 12:44:00,64.1,35.9,30.15,NNE,22,2.0,3.5,35,0.00,CLR,,0.00,578.0,WeatherDisplay:10.37,2013-01-20 20:44:00,
2013-01-20 12:49:00,64.2,36.0,30.15,NNE,22,0.6,2.3,35,0.00,CLR,,0.00,573.0,WeatherDisplay:10.37,2013-01-20 20:49:00,
2013-01-20 12:54:00,64.4,36.1,30.15,NNE,22,1.0,3.5,35,0.00,CLR,,0.00,575.0,WeatherDisplay:10.37,2013-01-20 20:54:00,
2013-01-20 12:59:00,64.6,36.3,30.15,NE,35,2.3,3.5,35,0.00,CLR,,0.00,571.0,WeatherDisplay:10.37,2013-01-20 20:59:00,
2013-01-20 13:04:00,64.7,35.7,30.15,NNE,21,0.4,3.5,34,0.00,CLR,,0.00,564.0,WeatherDisplay:10.37,2013-01-20 21:04:00,
2013-01-20 13:09:00,64.7,37.1,30.15,NNE,22,0.8,2.0,36,0.00,CLR,,0.00,561.0,WeatherDisplay:10.37,2013-01-20 21:09:00,
2013-01-20 13:14:00,64.6,36.3,30.14,North,6,2.0,3.5,35,0.00,CLR,,0.00,557.0,WeatherDisplay:10.37,2013-01-20 21:14:00,
2013-01-20 13:19:00,64.7,36.4,30.14,North,355,0.8,2.3,35,0.00,CLR,,0.00,552.0,WeatherDisplay:10.37,2013-01-20 21:19:00,
2013-01-20 13:24:00,64.7,36.4,30.14,NE,45,4.1,4.1,35,0.00,CLR,,0.00,547.0,WeatherDisplay:10.37,2013-01-20 21:24:00,
2013-01-20 13:29:00,64.5,36.2,30.14,NE,43,3.2,4.6,35,0.00,CLR,,0.00,540.0,WeatherDisplay:10.37,2013-01-20 21:29:00,
2013-01-20 13:34:00,64.4,35.4,30.14,NE,54,3.7,3.7,34,0.00,CLR,,0.00,536.0,WeatherDisplay:10.37,2013-01-20 21:34:00,
2013-01-20 13:39:00,64.1,35.1,30.13,NE,49,1.0,3.5,34,0.00,CLR,,0.00,526.0,WeatherDisplay:10.37,2013-01-20 21:39:00,
2013-01-20 13:44:00,64.3,35.3,30.13,NE,55,2.1,3.5,34,0.00,CLR,,0.00,517.0,WeatherDisplay:10.37,2013-01-20 21:44:00,
2013-01-20 13:49:00,64.6,36.3,30.13,NE,55,0.9,2.3,35,0.00,CLR,,0.00,508.0,WeatherDisplay:10.37,2013-01-20 21:49:00,
2013-01-20 13:54:00,64.9,36.6,30.13,North,10,2.9,3.5,35,0.00,CLR,,0.00,499.0,WeatherDisplay:10.37,2013-01-20 21:54:00,
2013-01-20 13:59:00,65.2,36.1,30.12,North,10,1.1,2.3,34,0.00,CLR,,0.00,490.0,WeatherDisplay:10.37,2013-01-20 21:59:00,
2013-01-20 14:04:00,65.6,36.5,30.12,North,351,1.7,4.0,34,0.00,CLR,,0.00,480.0,WeatherDisplay:10.37,2013-01-20 22:04:00,
2013-01-20 14:09:00,65.5,36.4,30.12,North,350,1.7,2.3,34,0.00,CLR,,0.00,473.0,WeatherDisplay:10.37,2013-01-20 22:09:00,
2013-01-20 14:14:00,65.6,36.5,30.12,North,6,2.5,3.5,34,0.00,CLR,,0.00,464.0,WeatherDisplay:10.37,2013-01-20 22:14:00,
2013-01-20 14:19:00,65.8,36.6,30.12,North,5,1.8,3.0,34,0.00,CLR,,0.00,454.0,WeatherDisplay:10.37,2013-01-20 22:19:00,
2013-01-20 14:25:00,66.1,36.1,30.12,North,6,1.7,2.3,33,0.00,CLR,,0.00,445.0,WeatherDisplay:10.37,2013-01-20 22:25:00,
2013-01-20 14:30:00,66.1,35.4,30.12,North,6,1.9,3.5,32,0.00,CLR,,0.00,434.0,WeatherDisplay:10.37,2013-01-20 22:30:00,
2013-01-20 14:35:00,66.0,34.5,30.12,North,5,2.0,3.5,31,0.00,CLR,,0.00,424.0,WeatherDisplay:10.37,2013-01-20 22:35:00,
2013-01-20 14:40:00,66.1,34.6,30.12,North,6,1.0,2.3,31,0.00,CLR,,0.00,410.0,WeatherDisplay:10.37,2013-01-20 22:40:00,
2013-01-20 14:45:00,66.2,34.7,30.12,North,6,0.9,1.1,31,0.00,CLR,,0.00,401.0,WeatherDisplay:10.37,2013-01-20 22:45:00,
2013-01-20 14:50:00,66.3,34.7,30.12,North,6,1.5,2.3,31,0.00,CLR,,0.00,390.0,WeatherDisplay:10.37,2013-01-20 22:50:00,
2013-01-20 14:55:00,66.3,34.7,30.12,North,5,0.7,2.3,31,0.00,CLR,,0.00,376.0,WeatherDisplay:10.37,2013-01-20 22:55:00,
2013-01-20 15:00:00,66.4,34.8,30.12,North,6,1.3,2.3,31,0.00,CLR,,0.00,362.0,WeatherDisplay:10.37,2013-01-20 23:00:00,
2013-01-20 15:05:00,66.5,35.7,30.12,NNW,332,1.9,3.5,32,0.00,CLR,,0.00,350.0,WeatherDisplay:10.37,2013-01-20 23:05:00,
2013-01-20 15:10:00,66.4,35.6,30.13,NNW,327,0.2,2.3,32,0.00,CLR,,0.00,336.0,WeatherDisplay:10.37,2013-01-20 23:10:00,
2013-01-20 15:15:00,66.4,35.6,30.12,NNW,327,1.0,2.0,32,0.00,CLR,CLR,0.00,322.0,WeatherDisplay:10.37,2013-01-20 23:15:00,
2013-01-20 15:20:00,66.3,35.5,30.13,NNW,327,0.5,1.1,32,0.00,CLR,,0.00,308.0,WeatherDisplay:10.37,2013-01-20 23:20:00,
2013-01-20 15:25:00,66.2,34.7,30.13,NNW,328,1.4,2.3,31,0.00,CLR,,0.00,297.0,WeatherDisplay:10.37,2013-01-20 23:25:00,
2013-01-20 15:30:00,66.1,33.7,30.13,NNW,328,1.0,2.0,30,0.00,CLR,CLR,0.00,281.0,WeatherDisplay:10.37,2013-01-20 23:30:00,
2013-01-20 15:35:00,66.0,33.7,30.13,NNW,327,1.3,2.3,30,0.00,CLR,,0.00,267.0,WeatherDisplay:10.37,2013-01-20 23:35:00,
2013-01-20 15:40:00,66.1,34.6,30.13,NNW,328,1.3,2.3,31,0.00,CLR,,0.00,251.0,WeatherDisplay:10.37,2013-01-20 23:40:00,
2013-01-20 15:45:00,66.0,34.5,30.13,NNW,328,2.5,3.5,31,0.00,CLR,,0.00,234.0,WeatherDisplay:10.37,2013-01-20 23:45:00,
2013-01-20 15:50:00,66.1,34.6,30.13,NNW,328,2.0,3.5,31,0.00,CLR,,0.00,216.0,WeatherDisplay:10.37,2013-01-20 23:50:00,
2013-01-20 15:55:00,66.2,34.7,30.13,NNW,327,1.4,2.3,31,0.00,CLR,,0.00,200.0,WeatherDisplay:10.37,2013-01-20 23:55:00,
2013-01-20 16:00:00,66.3,34.7,30.13,NNW,327,1.5,3.5,31,0.00,CLR,,0.00,181.0,WeatherDisplay:10.37,2013-01-21 00:00:00,
2013-01-20 16:05:00,66.2,34.7,30.13,NNW,328,0.0,0.0,31,0.00,CLR,,0.00,162.0,WeatherDisplay:10.37,2013-01-21 00:05:00,
2013-01-20 16:10:00,66.1,34.6,30.13,NNW,327,0.1,1.1,31,0.00,CLR,,0.00,142.0,WeatherDisplay:10.37,2013-01-21 00:10:00,
2013-01-20 16:15:00,65.8,34.3,30.13,NNW,327,0.2,1.1,31,0.00,CLR,,0.00,123.0,WeatherDisplay:10.37,2013-01-21 00:15:00,
2013-01-20 16:20:00,65.5,34.8,30.13,NNW,327,0.1,1.0,32,0.00,CLR,,0.00,105.0,WeatherDisplay:10.37,2013-01-21 00:20:00,
2013-01-20 16:25:00,65.2,34.6,30.13,NNW,328,0.7,1.1,32,0.00,CLR,,0.00,90.0,WeatherDisplay:10.37,2013-01-21 00:25:00,
2013-01-20 16:30:00,64.9,34.3,30.13,NNW,328,0.0,0.0,32,0.00,CLR,,0.00,77.0,WeatherDisplay:10.37,2013-01-21 00:30:00,
2013-01-20 16:35:00,64.9,35.1,30.13,NNW,328,0.0,0.0,33,0.00,CLR,,0.00,62.0,WeatherDisplay:10.37,2013-01-21 00:35:00,
2013-01-20 16:40:00,64.7,34.9,30.13,NNW,327,0.0,0.0,33,0.00,CLR,,0.00,49.0,WeatherDisplay:10.37,2013-01-21 00:40:00,
2013-01-20 16:45:00,64.2,34.5,30.13,NNW,328,1.0,1.1,33,0.00,CLR,,0.00,37.0,WeatherDisplay:10.37,2013-01-21 00:45:00,
2013-01-20 16:50:00,63.2,34.3,30.13,NNW,333,1.2,2.3,34,0.00,CLR,,0.00,19.0,WeatherDisplay:10.37,2013-01-21 00:50:00,
2013-01-20 16:55:00,62.2,34.9,30.13,NNW,341,2.0,3.0,36,0.00,CLR,CLR,0.00,18.0,WeatherDisplay:10.37,2013-01-21 00:55:00,
2013-01-20 17:00:00,61.2,34.0,30.13,North,4,2.0,3.0,36,0.00,CLR,CLR,0.00,14.0,WeatherDisplay:10.37,2013-01-21 01:00:00,
2013-01-20 17:05:00,60.2,33.8,30.13,ENE,62,2.5,3.5,37,0.00,CLR,,0.00,12.0,WeatherDisplay:10.37,2013-01-21 01:05:00,
2013-01-20 17:10:00,59.3,33.7,30.13,East,82,2.9,3.5,38,0.00,CLR,,0.00,11.0,WeatherDisplay:10.37,2013-01-21 01:10:00,
2013-01-20 17:15:00,58.7,33.8,30.13,SE,126,2.7,3.5,39,0.00,CLR,,0.00,9.0,WeatherDisplay:10.37,2013-01-21 01:15:00,
2013-01-20 17:20:00,58.3,34.1,30.12,SE,133,3.3,4.0,40,0.00,CLR,,0.00,5.0,WeatherDisplay:10.37,2013-01-21 01:20:00,
2013-01-20 17:25:00,57.9,34.3,30.12,SE,131,3.5,3.5,41,0.00,CLR,,0.00,0.0,WeatherDisplay:10.37,2013-01-21 01:25:00,
2013-01-20 17:30:00,57.6,34.1,30.12,SE,135,3.0,3.5,41,0.00,CLR,,0.00,0.0,WeatherDisplay:10.37,2013-01-21 01:30:00,
2013-01-20 17:35:00,57.4,33.3,30.13,SE,135,3.3,3.5,40,0.00,CLR,,0.00,0.0,WeatherDisplay:10.37,2013-01-21 01:35:00,
2013-01-20 17:40:00,57.3,34.4,30.13,SE,135,3.5,4.0,42,0.00,CLR,,0.00,0.0,WeatherDisplay:10.37,2013-01-21 01:40:00,
2013-01-20 17:45:00,57.2,34.3,30.13,SE,135,3.0,4.0,42,0.00,CLR,CLR,0.00,0.0,WeatherDisplay:10.37,2013-01-21 01:45:00,
2013-01-20 17:50:00,57.1,34.2,30.13,SE,124,3.1,3.5,42,0.00,CLR,,0.00,0.0,WeatherDisplay:10.37,2013-01-21 01:50:00,
2013-01-20 17:55:00,57.2,33.7,30.13,ESE,116,2.8,3.5,41,0.00,CLR,,0.00,0.0,WeatherDisplay:10.37,2013-01-21 01:55:00,
2013-01-20 18:00:00,57.3,33.8,30.13,ESE,118,2.9,3.5,41,0.00,CLR,,0.00,0.0,WeatherDisplay:10.37,2013-01-21 02:00:00,
2013-01-20 18:05:00,57.3,33.2,30.13,ESE,118,2.7,3.5,40,0.00,CLR,,0.00,0.0,WeatherDisplay:10.37,2013-01-21 02:05:00,
2013-01-20 18:10:00,57.3,32.5,30.13,ESE,112,3.1,4.0,39,0.00,CLR,,0.00,0.0,WeatherDisplay:10.37,2013-01-21 02:10:00,
2013-01-20 18:15:00,57.2,33.1,30.13,ESE,106,3.0,3.5,40,0.00,CLR,,0.00,0.0,WeatherDisplay:10.37,2013-01-21 02:15:00,
2013-01-20 18:20:00,57.1,33.0,30.13,ESE,122,3.1,3.5,40,0.00,CLR,,0.00,0.0,WeatherDisplay:10.37,2013-01-21 02:20:00,
2013-01-20 18:25:00,56.9,32.8,30.14,SE,124,2.8,3.5,40,0.00,CLR,,0.00,0.0,WeatherDisplay:10.37,2013-01-21 02:25:00,
2013-01-20 18:30:00,56.9,32.2,30.14,ESE,123,3.0,4.0,39,0.00,CLR,CLR,0.00,0.0,WeatherDisplay:10.37,2013-01-21 02:30:00,
2013-01-20 18:35:00,56.8,32.1,30.14,ESE,118,2.5,3.5,39,0.00,CLR,,0.00,0.0,WeatherDisplay:10.37,2013-01-21 02:35:00,
2013-01-20 18:40:00,56.8,32.1,30.14,ESE,118,2.3,3.5,39,0.00,CLR,,0.00,0.0,WeatherDisplay:10.37,2013-01-21 02:40:00,
2013-01-20 18:45:00,56.7,32.0,30.14,ESE,118,2.5,3.5,39,0.00,CLR,,0.00,0.0,WeatherDisplay:10.37,2013-01-21 02:45:00,
2013-01-20 18:50:00,56.5,31.8,30.14,ESE,118,2.7,3.5,39,0.00,CLR,,0.00,0.0,WeatherDisplay:10.37,2013-01-21 02:50:00,
2013-01-20 18:55:00,56.3,31.6,30.14,ESE,123,2.6,3.5,39,0.00,CLR,,0.00,0.0,WeatherDisplay:10.37,2013-01-21 02:55:00,
2013-01-20 19:00:00,56.1,32.1,30.14,SE,124,2.3,3.5,40,0.00,CLR,,0.00,0.0,WeatherDisplay:10.37,2013-01-21 03:00:00,
2013-01-20 19:05:00,55.9,32.5,30.14,SE,124,2.4,3.5,41,0.00,CLR,,0.00,0.0,WeatherDisplay:10.37,2013-01-21 03:05:00,
2013-01-20 19:10:00,56.0,31.4,30.14,SE,124,2.4,3.5,39,0.00,CLR,,0.00,0.0,WeatherDisplay:10.37,2013-01-21 03:10:00,
2013-01-20 19:15:00,56.1,30.2,30.14,SE,124,1.4,2.3,37,0.00,CLR,,0.00,0.0,WeatherDisplay:10.37,2013-01-21 03:15:00,
2013-01-20 19:20:00,56.0,31.4,30.15,SE,124,0.6,1.1,39,0.00,CLR,,0.00,0.0,WeatherDisplay:10.37,2013-01-21 03:20:00,
2013-01-20 19:25:00,56.3,29.7,30.15,SE,124,1.2,2.3,36,0.00,CLR,,0.00,0.0,WeatherDisplay:10.37,2013-01-21 03:25:00,
2013-01-20 19:30:00,56.3,29.0,30.14,ESE,123,0.0,1.1,35,0.00,CLR,,0.00,0.0,WeatherDisplay:10.37,2013-01-21 03:30:00,
2013-01-20 19:35:00,56.2,28.2,30.14,SE,124,0.0,0.0,34,0.00,CLR,,0.00,0.0,WeatherDisplay:10.37,2013-01-21 03:35:00,
2013-01-20 19:40:00,56.2,28.2,30.14,SE,124,0.0,0.0,34,0.00,CLR,,0.00,0.0,WeatherDisplay:10.37,2013-01-21 03:40:00,
2013-01-20 19:45:00,56.0,28.0,30.14,SE,124,0.0,0.0,34,0.00,CLR,,0.00,0.0,WeatherDisplay:10.37,2013-01-21 03:45:00,
2013-01-20 19:50:00,56.0,28.0,30.14,SE,124,1.1,2.0,34,0.00,CLR,,0.00,0.0,WeatherDisplay:10.37,2013-01-21 03:50:00,
2013-01-20 19:55:00,55.9,27.9,30.14,SE,124,0.0,2.0,34,0.00,CLR,CLR,0.00,0.0,WeatherDisplay:10.37,2013-01-21 03:55:00,
2013-01-20 20:00:00,56.0,28.0,30.14,SE,124,0.0,0.0,34,0.00,CLR,,0.00,0.0,WeatherDisplay:10.37,2013-01-21 04:00:00,
2013-01-20 20:05:00,56.3,28.3,30.15,SE,124,2.6,3.5,34,0.00,CLR,,0.00,0.0,WeatherDisplay:10.37,2013-01-21 04:05:00,
2013-01-20 20:10:00,56.1,28.1,30.15,SE,124,0.4,2.3,34,0.00,CLR,,0.00,0.0,WeatherDisplay:10.37,2013-01-21 04:10:00,
2013-01-20 20:15:00,55.8,27.8,30.15,SE,124,0.0,0.0,34,0.00,CLR,,0.00,0.0,WeatherDisplay:10.37,2013-01-21 04:15:00,
2013-01-20 20:20:00,55.5,29.6,30.15,ENE,74,2.5,3.5,37,0.00,CLR,,0.00,0.0,WeatherDisplay:10.37,2013-01-21 04:20:00,
2013-01-20 20:25:00,55.1,29.3,30.15,ENE,63,2.2,3.5,37,0.00,CLR,,0.00,0.0,WeatherDisplay:10.37,2013-01-21 04:25:00,
2013-01-20 20:30:00,54.6,29.5,30.15,ENE,59,2.8,3.5,38,0.00,CLR,,0.00,0.0,WeatherDisplay:10.37,2013-01-21 04:30:00,
2013-01-20 20:35:00,54.1,30.3,30.15,ENE,60,2.1,2.3,40,0.00,CLR,,0.00,0.0,WeatherDisplay:10.37,2013-01-21 04:35:00,
2013-01-20 20:40:00,53.5,31.0,30.15,ENE,60,2.1,3.5,42,0.00,CLR,,0.00,0.0,WeatherDisplay:10.37,2013-01-21 04:40:00,
2013-01-20 20:45:00,53.1,31.2,30.15,ENE,60,1.6,2.3,43,0.00,CLR,,0.00,0.0,WeatherDisplay:10.37,2013-01-21 04:45:00,
2013-01-20 20:50:00,52.7,31.4,30.15,ENE,60,1.5,2.3,44,0.00,CLR,,0.00,0.0,WeatherDisplay:10.37,2013-01-21 04:50:00,
2013-01-20 20:55:00,52.3,31.0,30.15,ENE,60,1.3,2.0,44,0.00,CLR,,0.00,0.0,WeatherDisplay:10.37,2013-01-21 04:55:00,
2013-01-20 21:00:00,52.1,30.8,30.15,ENE,60,2.2,2.3,44,0.00,CLR,,0.00,0.0,WeatherDisplay:10.37,2013-01-21 05:00:00,
2013-01-20 21:03:00,51.9,31.2,30.16,ENE,60,1.9,3.5,45,0.00,CLR,,0.00,0.0,WeatherDisplay:10.37,2013-01-21 05:03:00,
2013-01-20 21:04:00,51.9,31.2,30.16,ENE,60,1.9,2.3,45,0.00,CLR,,0.00,0.0,WeatherDisplay:10.37,2013-01-21 05:04:00,
2013-01-20 21:09:00,51.7,31.0,30.16,ENE,59,2.0,3.5,45,0.00,CLR,,0.00,0.0,WeatherDisplay:10.37,2013-01-21 05:09:00,
2013-01-20 21:14:00,51.5,31.4,30.16,ENE,58,1.5,3.5,46,0.00,CLR,,0.00,0.0,WeatherDisplay:10.37,2013-01-21 05:14:00,
2013-01-20 21:19:00,51.7,31.6,30.16,WNW,297,3.0,3.5,46,0.00,CLR,,0.00,0.0,WeatherDisplay:10.37,2013-01-21 05:19:00,
2013-01-20 21:24:00,51.7,31.0,30.16,WNW,300,2.3,3.5,45,0.00,CLR,,0.00,0.0,WeatherDisplay:10.37,2013-01-21 05:24:00,
2013-01-20 21:29:00,51.6,30.9,30.16,WNW,301,1.8,3.5,45,0.00,CLR,,0.00,0.0,WeatherDisplay:10.37,2013-01-21 05:29:00,
2013-01-20 21:34:00,51.3,30.7,30.16,WNW,302,2.5,3.5,45,0.00,CLR,,0.00,0.0,WeatherDisplay:10.37,2013-01-21 05:34:00,
2013-01-20 21:39:00,51.0,30.9,30.16,WNW,301,2.3,3.5,46,0.00,CLR,,0.00,0.0,WeatherDisplay:10.37,2013-01-21 05:39:00,
2013-01-20 21:44:00,50.9,31.4,30.16,WNW,302,1.6,2.3,47,0.00,CLR,,0.00,0.0,WeatherDisplay:10.37,2013-01-21 05:44:00,
2013-01-20 21:49:00,50.7,31.7,30.17,WNW,301,1.1,2.3,48,0.00,CLR,,0.00,0.0,WeatherDisplay:10.37,2013-01-21 05:49:00,
2013-01-20 21:54:00,50.5,31.5,30.17,WNW,301,0.6,1.1,48,0.00,CLR,,0.00,0.0,WeatherDisplay:10.37,2013-01-21 05:54:00,
2013-01-20 21:59:00,50.4,31.4,30.17,WNW,301,1.7,2.3,48,0.00,CLR,,0.00,0.0,WeatherDisplay:10.37,2013-01-21 05:59:00,
2013-01-20 22:04:00,50.3,30.8,30.17,WNW,293,2.0,3.5,47,0.00,CLR,,0.00,0.0,WeatherDisplay:10.37,2013-01-21 06:04:00,
2013-01-20 22:09:00,50.4,31.4,30.17,West,272,0.1,1.1,48,0.00,CLR,,0.00,0.0,WeatherDisplay:10.37,2013-01-21 06:09:00,
2013-01-20 22:14:00,50.7,31.2,30.17,West,272,0.1,1.1,47,0.00,CLR,,0.00,0.0,WeatherDisplay:10.37,2013-01-21 06:14:00,
2013-01-20 22:19:00,50.8,31.3,30.17,West,272,0.0,0.0,47,0.00,CLR,,0.00,0.0,WeatherDisplay:10.37,2013-01-21 06:19:00,
2013-01-20 22:24:00,50.9,30.8,30.16,West,272,0.0,0.0,46,0.00,CLR,,0.00,0.0,WeatherDisplay:10.37,2013-01-21 06:24:00,
2013-01-20 22:29:00,51.2,31.1,30.17,West,272,0.0,0.0,46,0.00,CLR,,0.00,0.0,WeatherDisplay:10.37,2013-01-21 06:29:00,
2013-01-20 22:34:00,51.4,30.7,30.16,West,272,1.0,1.1,45,0.00,CLR,,0.00,0.0,WeatherDisplay:10.37,2013-01-21 06:34:00,
2013-01-20 22:39:00,51.4,30.7,30.17,West,272,1.4,2.3,45,0.00,CLR,,0.00,0.0,WeatherDisplay:10.37,2013-01-21 06:39:00,
2013-01-20 22:44:00,51.3,30.7,30.16,West,273,1.4,2.3,45,0.00,CLR,,0.00,0.0,WeatherDisplay:10.37,2013-01-21 06:44:00,
2013-01-20 22:49:00,51.2,30.6,30.16,West,272,2.0,2.3,45,0.00,CLR,,0.00,0.0,WeatherDisplay:10.37,2013-01-21 06:49:00,
2013-01-20 22:54:00,51.0,30.9,30.16,West,272,1.8,2.3,46,0.00,CLR,,0.00,0.0,WeatherDisplay:10.37,2013-01-21 06:54:00,
2013-01-20 22:59:00,50.8,30.7,30.16,West,273,1.6,2.3,46,0.00,CLR,,0.00,0.0,WeatherDisplay:10.37,2013-01-21 06:59:00,
2013-01-20 23:04:00,50.6,31.6,30.15,West,273,1.6,2.3,48,0.00,CLR,,0.00,0.0,WeatherDisplay:10.37,2013-01-21 07:04:00,
2013-01-20 23:09:00,50.5,31.0,30.15,West,276,1.5,3.5,47,0.00,CLR,,0.00,0.0,WeatherDisplay:10.37,2013-01-21 07:09:00,
2013-01-20 23:14:00,50.6,31.1,30.15,West,276,0.9,2.3,47,0.00,CLR,,0.00,0.0,WeatherDisplay:10.37,2013-01-21 07:14:00,
2013-01-20 23:19:00,50.5,31.0,30.15,West,276,1.5,2.3,47,0.00,CLR,,0.00,0.0,WeatherDisplay:10.37,2013-01-21 07:19:00,
2013-01-20 23:24:00,50.5,31.0,30.15,West,276,1.1,2.3,47,0.00,CLR,,0.00,0.0,WeatherDisplay:10.37,2013-01-21 07:24:00,
2013-01-20 23:29:00,50.4,30.4,30.15,West,275,1.0,2.3,46,0.00,CLR,,0.00,0.0,WeatherDisplay:10.37,2013-01-21 07:29:00,
2013-01-20 23:34:00,50.4,30.9,30.15,West,276,2.1,3.5,47,0.00,CLR,,0.00,0.0,WeatherDisplay:10.37,2013-01-21 07:34:00,
2013-01-20 23:39:00,50.6,31.1,30.15,West,275,3.3,4.0,47,0.00,CLR,,0.00,0.0,WeatherDisplay:10.37,2013-01-21 07:39:00,
2013-01-20 23:44:00,50.8,31.8,30.15,WNW,284,3.7,4.0,48,0.00,CLR,,0.00,0.0,WeatherDisplay:10.37,2013-01-21 07:44:00,
2013-01-20 23:49:00,50.8,31.3,30.15,NW,304,4.2,4.6,47,0.00,CLR,,0.00,0.0,WeatherDisplay:10.37,2013-01-21 07:49:00,
2013-01-20 23:54:00,50.6,31.1,30.15,NW,305,2.2,3.5,47,0.00,CLR,,0.00,0.0,WeatherDisplay:10.37,2013-01-21 07:54:00,
2013-01-20 23:59:00,50.4,30.4,30.15,NW,305,1.6,2.3,46,0.00,CLR,,0.00,0.0,WeatherDisplay:10.37,2013-01-21 07:59:00,